createdAt,value
2022-08-01T00:01:44.798Z,23.24
2022-08-01T00:04:11.056Z,23.24
2022-08-01T00:06:37.377Z,23.24
2022-08-01T00:09:03.647Z,23.25
2022-08-01T00:11:30.005Z,23.24
2022-08-01T00:13:56.366Z,23.24
2022-08-01T00:16:22.786Z,23.24
2022-08-01T00:18:49.049Z,23.23
2022-08-01T00:21:15.447Z,23.22
2022-08-01T00:23:41.771Z,23.23
2022-08-01T00:26:08.103Z,23.20
2022-08-01T00:28:34.431Z,23.21
2022-08-01T00:31:00.910Z,23.20
2022-08-01T00:33:27.244Z,23.19
2022-08-01T00:35:53.728Z,23.19
2022-08-01T00:38:20.258Z,23.19
2022-08-01T00:40:46.594Z,23.18
2022-08-01T00:43:12.892Z,23.17
2022-08-01T00:45:39.264Z,23.16
2022-08-01T00:48:05.692Z,23.16
2022-08-01T00:50:31.978Z,23.15
2022-08-01T00:52:58.367Z,23.14
2022-08-01T00:55:24.721Z,23.13
2022-08-01T00:58:02.979Z,23.11
2022-08-01T01:00:34.772Z,23.11
2022-08-01T01:03:19.073Z,23.08
2022-08-01T01:05:45.548Z,23.07
2022-08-01T01:08:11.902Z,23.06
2022-08-01T01:10:38.229Z,23.04
2022-08-01T01:13:04.684Z,23.02
2022-08-01T01:15:32.311Z,23.01
2022-08-01T01:17:58.748Z,23.00
2022-08-01T01:20:25.078Z,23.00
2022-08-01T01:22:51.440Z,22.98
2022-08-01T01:25:18.033Z,22.98
2022-08-01T01:27:44.376Z,22.98
2022-08-01T01:30:10.772Z,22.96
2022-08-01T01:32:37.278Z,22.96
2022-08-01T01:35:03.563Z,22.95
2022-08-01T01:37:29.833Z,22.95
2022-08-01T01:39:56.122Z,22.93
2022-08-01T01:42:22.403Z,22.94
2022-08-01T01:44:48.736Z,22.92
2022-08-01T01:47:14.991Z,22.91
2022-08-01T01:49:41.325Z,22.91
2022-08-01T01:52:07.998Z,22.90
2022-08-01T01:54:34.723Z,22.90
2022-08-01T01:57:01.106Z,22.89
2022-08-01T01:59:27.412Z,22.87
2022-08-01T02:02:05.394Z,22.87
2022-08-01T02:04:34.689Z,22.86
2022-08-01T02:07:00.983Z,22.85
2022-08-01T02:09:27.305Z,22.83
2022-08-01T02:12:13.956Z,22.83
2022-08-01T02:14:40.051Z,22.82
2022-08-01T02:17:06.571Z,22.83
2022-08-01T02:19:32.861Z,22.81
2022-08-01T02:22:00.836Z,22.81
2022-08-01T02:24:30.482Z,22.80
2022-08-01T02:26:57.144Z,22.79
2022-08-01T02:29:23.792Z,22.79
2022-08-01T02:31:50.087Z,22.77
2022-08-01T02:34:16.483Z,22.77
2022-08-01T02:36:43.006Z,22.75
2022-08-01T02:39:09.370Z,22.75
2022-08-01T02:41:35.748Z,22.75
2022-08-01T02:44:02.153Z,22.75
2022-08-01T02:46:28.477Z,22.74
2022-08-01T02:48:54.778Z,22.72
2022-08-01T02:51:21.085Z,22.71
2022-08-01T02:53:47.498Z,22.71
2022-08-01T02:56:14.013Z,22.69
2022-08-01T02:58:40.317Z,22.69
2022-08-01T03:01:06.934Z,22.68
2022-08-01T03:03:34.217Z,22.68
2022-08-01T03:06:00.590Z,22.67
2022-08-01T03:08:26.889Z,22.67
2022-08-01T03:10:53.240Z,22.65
2022-08-01T03:13:19.791Z,22.64
2022-08-01T03:15:46.220Z,22.63
2022-08-01T03:18:12.740Z,22.62
2022-08-01T03:20:39.059Z,22.61
2022-08-01T03:23:05.751Z,22.61
2022-08-01T03:25:32.080Z,22.59
2022-08-01T03:27:58.677Z,22.59
2022-08-01T03:30:25.323Z,22.60
2022-08-01T03:32:54.912Z,22.58
2022-08-01T03:35:21.259Z,22.57
2022-08-01T03:38:14.243Z,22.56
2022-08-01T03:40:33.859Z,22.55
2022-08-01T03:43:00.178Z,22.55
2022-08-01T03:45:26.745Z,22.55
2022-08-01T03:47:53.094Z,22.54
2022-08-01T03:50:19.476Z,22.52
2022-08-01T03:52:45.904Z,22.51
2022-08-01T03:55:12.265Z,22.50
2022-08-01T03:57:38.786Z,22.49
2022-08-01T04:00:05.176Z,22.48
2022-08-01T04:02:31.765Z,22.38
2022-08-01T04:04:58.217Z,22.47
2022-08-01T04:07:24.582Z,22.46
2022-08-01T04:09:50.949Z,22.45
2022-08-01T04:12:17.448Z,22.44
2022-08-01T04:14:43.708Z,22.40
2022-08-01T04:17:10.247Z,22.40
2022-08-01T04:19:36.572Z,22.38
2022-08-01T04:22:03.159Z,22.37
2022-08-01T04:24:29.671Z,22.34
2022-08-01T04:26:56.192Z,22.33
2022-08-01T04:29:22.549Z,22.32
2022-08-01T04:31:48.912Z,22.31
2022-08-01T04:34:15.229Z,22.31
2022-08-01T04:36:41.600Z,22.30
2022-08-01T04:39:07.949Z,22.29
2022-08-01T04:41:34.299Z,22.28
2022-08-01T04:44:00.652Z,22.28
2022-08-01T04:46:27.081Z,22.25
2022-08-01T04:48:53.596Z,22.25
2022-08-01T04:51:20.092Z,22.24
2022-08-01T04:53:46.360Z,22.23
2022-08-01T04:56:12.685Z,22.24
2022-08-01T04:58:39.012Z,22.26
2022-08-01T05:01:05.324Z,22.27
2022-08-01T05:03:34.816Z,22.27
2022-08-01T05:06:03.407Z,22.28
2022-08-01T05:08:29.739Z,22.29
2022-08-01T05:10:56.173Z,22.29
2022-08-01T05:13:22.459Z,22.27
2022-08-01T05:15:48.719Z,22.26
2022-08-01T05:18:15.182Z,22.26
2022-08-01T05:20:41.494Z,22.27
2022-08-01T05:23:10.390Z,22.27
2022-08-01T05:25:56.910Z,22.28
2022-08-01T05:28:24.522Z,22.28
2022-08-01T05:30:50.849Z,22.25
2022-08-01T05:33:17.368Z,22.24
2022-08-01T05:35:47.771Z,22.24
2022-08-01T05:38:15.472Z,22.24
2022-08-01T05:40:41.889Z,22.24
2022-08-01T05:43:08.245Z,22.26
2022-08-01T05:45:34.751Z,22.25
2022-08-01T05:48:01.111Z,22.26
2022-08-01T05:50:27.435Z,22.25
2022-08-01T05:52:53.869Z,22.24
2022-08-01T05:55:20.260Z,22.24
2022-08-01T05:57:46.783Z,22.24
2022-08-01T06:00:13.091Z,22.26
2022-08-01T06:02:39.462Z,22.24
2022-08-01T06:05:08.135Z,22.26
2022-08-01T06:07:38.505Z,22.28
2022-08-01T06:10:06.855Z,22.29
2022-08-01T06:12:35.638Z,22.34
2022-08-01T06:15:02.199Z,22.37
2022-08-01T06:17:29.046Z,22.41
2022-08-01T06:19:55.360Z,22.46
2022-08-01T06:22:21.623Z,22.50
2022-08-01T06:24:49.201Z,22.51
2022-08-01T06:27:21.659Z,22.53
2022-08-01T06:29:51.256Z,22.54
2022-08-01T06:32:26.738Z,22.57
2022-08-01T06:34:54.262Z,22.60
2022-08-01T06:37:20.610Z,22.62
2022-08-01T06:39:46.919Z,22.66
2022-08-01T06:42:13.216Z,22.70
2022-08-01T06:44:39.537Z,22.76
2022-08-01T06:47:05.867Z,22.78
2022-08-01T06:49:32.268Z,22.80
2022-08-01T06:52:01.701Z,22.83
2022-08-01T06:54:28.038Z,22.85
2022-08-01T06:56:54.381Z,22.86
2022-08-01T06:59:20.722Z,22.94
2022-08-01T07:01:47.126Z,23.11
2022-08-01T07:04:13.398Z,23.31
2022-08-01T07:06:39.911Z,23.53
2022-08-01T07:09:09.697Z,23.60
2022-08-01T07:11:40.036Z,23.81
2022-08-01T07:14:06.316Z,23.92
2022-08-01T07:16:32.930Z,23.95
2022-08-01T07:18:59.273Z,23.99
2022-08-01T07:21:40.479Z,23.95
2022-08-01T07:24:13.084Z,24.03
2022-08-01T07:26:40.453Z,23.94
2022-08-01T07:29:19.130Z,23.93
2022-08-01T07:31:45.473Z,23.98
2022-08-01T07:34:14.330Z,24.01
2022-08-01T07:36:40.893Z,24.16
2022-08-01T07:39:07.210Z,24.05
2022-08-01T07:41:52.711Z,23.93
2022-08-01T07:44:20.031Z,23.89
2022-08-01T07:46:46.469Z,23.87
2022-08-01T07:49:12.908Z,23.87
2022-08-01T07:51:39.252Z,23.89
2022-08-01T07:54:05.527Z,23.86
2022-08-01T07:56:31.835Z,23.86
2022-08-01T07:58:58.797Z,23.86
2022-08-01T08:01:25.252Z,23.88
2022-08-01T08:03:51.679Z,23.90
2022-08-01T08:06:17.975Z,23.91
2022-08-01T08:08:44.285Z,23.92
2022-08-01T08:11:12.649Z,23.92
2022-08-01T08:13:39.244Z,23.91
2022-08-01T08:16:05.564Z,23.87
2022-08-01T08:18:31.862Z,23.82
2022-08-01T08:20:58.218Z,23.72
2022-08-01T08:23:41.384Z,23.66
2022-08-01T08:26:10.102Z,23.63
2022-08-01T08:28:36.400Z,23.60
2022-08-01T08:31:02.964Z,23.56
2022-08-01T08:33:29.270Z,23.56
2022-08-01T08:35:58.687Z,23.58
2022-08-01T08:38:28.357Z,23.61
2022-08-01T08:40:56.398Z,23.61
2022-08-01T08:43:23.101Z,23.63
2022-08-01T08:45:58.869Z,23.65
2022-08-01T08:48:27.908Z,23.67
2022-08-01T08:50:54.464Z,23.65
2022-08-01T08:53:20.939Z,23.63
2022-08-01T08:55:55.558Z,23.62
2022-08-01T08:58:26.360Z,23.68
2022-08-01T09:00:57.796Z,23.73
2022-08-01T09:03:24.249Z,23.82
2022-08-01T09:05:50.731Z,23.85
2022-08-01T09:08:17.028Z,24.09
2022-08-01T09:10:43.306Z,24.31
2022-08-01T09:13:09.673Z,24.37
2022-08-01T09:15:36.109Z,24.44
2022-08-01T09:18:02.483Z,24.44
2022-08-01T09:20:28.771Z,24.44
2022-08-01T09:22:55.219Z,24.49
2022-08-01T09:25:21.519Z,24.59
2022-08-01T09:27:56.197Z,24.64
2022-08-01T09:30:23.733Z,24.80
2022-08-01T09:32:52.430Z,24.82
2022-08-01T09:35:19.086Z,24.81
2022-08-01T09:37:47.385Z,24.89
2022-08-01T09:40:14.855Z,24.94
2022-08-01T09:42:41.389Z,24.86
2022-08-01T09:45:07.744Z,24.78
2022-08-01T09:47:34.064Z,24.76
2022-08-01T09:50:00.571Z,24.83
2022-08-01T09:52:28.956Z,24.97
2022-08-01T09:54:55.792Z,25.06
2022-08-01T09:57:22.349Z,25.07
2022-08-01T09:59:58.382Z,25.04
2022-08-01T10:02:26.085Z,25.10
2022-08-01T10:04:58.168Z,25.17
2022-08-01T10:07:27.907Z,25.17
2022-08-01T10:10:10.454Z,25.24
2022-08-01T10:12:37.931Z,25.23
2022-08-01T10:15:10.800Z,25.22
2022-08-01T10:17:50.604Z,25.31
2022-08-01T10:20:28.898Z,25.32
2022-08-01T10:22:57.028Z,25.41
2022-08-01T10:25:42.636Z,25.47
2022-08-01T10:28:09.661Z,25.57
2022-08-01T10:30:36.711Z,25.64
2022-08-01T10:33:03.022Z,25.61
2022-08-01T10:35:46.979Z,25.66
2022-08-01T10:38:14.222Z,25.69
2022-08-01T10:40:40.520Z,25.75
2022-08-01T10:43:06.976Z,25.77
2022-08-01T10:45:33.255Z,25.79
2022-08-01T10:47:59.570Z,25.83
2022-08-01T10:50:26.410Z,25.87
2022-08-01T10:52:52.774Z,25.89
2022-08-01T10:55:19.137Z,25.93
2022-08-01T10:57:52.473Z,25.96
2022-08-01T11:00:19.559Z,25.99
2022-08-01T11:02:46.163Z,26.01
2022-08-01T11:05:14.303Z,26.02
2022-08-01T11:07:40.827Z,26.02
2022-08-01T11:10:10.242Z,26.01
2022-08-01T11:12:41.035Z,26.00
2022-08-01T11:15:07.351Z,26.02
2022-08-01T11:17:37.140Z,26.05
2022-08-01T11:20:04.790Z,26.09
2022-08-01T11:22:31.114Z,26.09
2022-08-01T11:24:57.553Z,26.08
2022-08-01T11:27:24.486Z,26.05
2022-08-01T11:29:50.799Z,26.05
2022-08-01T11:32:17.287Z,26.04
2022-08-01T11:34:43.619Z,26.04
2022-08-01T11:37:10.180Z,26.04
2022-08-01T11:39:39.497Z,26.04
2022-08-01T11:42:07.709Z,26.05
2022-08-01T11:44:34.050Z,26.07
2022-08-01T11:47:09.377Z,26.10
2022-08-01T11:49:36.750Z,26.12
2022-08-01T11:52:05.440Z,26.14
2022-08-01T11:54:35.443Z,26.16
2022-08-01T11:57:02.405Z,26.17
2022-08-01T11:59:38.012Z,26.18
2022-08-01T12:02:07.721Z,26.19
2022-08-01T12:04:34.087Z,26.21
2022-08-01T12:07:00.820Z,26.22
2022-08-01T12:09:27.102Z,26.24
2022-08-01T12:11:53.442Z,26.23
2022-08-01T12:14:19.748Z,26.23
2022-08-01T12:16:46.106Z,26.23
2022-08-01T12:19:12.422Z,26.25
2022-08-01T12:21:40.353Z,26.29
2022-08-01T12:24:07.347Z,26.31
2022-08-01T12:26:33.680Z,26.33
2022-08-01T12:29:00.004Z,26.36
2022-08-01T12:31:26.385Z,26.39
2022-08-01T12:33:52.665Z,26.41
2022-08-01T12:36:18.988Z,26.45
2022-08-01T12:38:45.293Z,26.47
2022-08-01T12:41:11.854Z,26.49
2022-08-01T12:43:38.169Z,26.55
2022-08-01T12:46:04.664Z,26.58
2022-08-01T12:48:31.163Z,26.60
2022-08-01T12:50:57.481Z,26.62
2022-08-01T12:53:23.779Z,26.66
2022-08-01T12:55:58.322Z,26.64
2022-08-01T12:58:26.289Z,26.57
2022-08-01T13:00:52.835Z,26.51
2022-08-01T13:03:19.213Z,26.46
2022-08-01T13:05:45.563Z,26.41
2022-08-01T13:08:11.891Z,26.38
2022-08-01T13:10:38.229Z,26.37
2022-08-01T13:13:04.486Z,26.36
2022-08-01T13:15:30.799Z,26.36
2022-08-01T13:17:59.788Z,26.36
2022-08-01T13:20:26.080Z,26.34
2022-08-01T13:22:52.466Z,26.31
2022-08-01T13:25:22.095Z,26.25
2022-08-01T13:27:53.695Z,26.21
2022-08-01T13:30:27.781Z,26.16
2022-08-01T13:32:54.101Z,26.13
2022-08-01T13:35:20.381Z,26.12
2022-08-01T13:37:46.722Z,26.14
2022-08-01T13:40:13.149Z,26.14
2022-08-01T13:42:39.468Z,26.15
2022-08-01T13:45:13.970Z,26.17
2022-08-01T13:48:03.707Z,26.18
2022-08-01T13:50:27.734Z,26.17
2022-08-01T13:52:54.099Z,26.17
2022-08-01T13:55:20.544Z,26.18
2022-08-01T13:57:46.931Z,26.19
2022-08-01T14:00:13.212Z,26.19
2022-08-01T14:02:39.508Z,26.21
2022-08-01T14:05:05.854Z,26.23
2022-08-01T14:07:32.123Z,26.24
2022-08-01T14:10:17.683Z,26.25
2022-08-01T14:12:45.822Z,26.26
2022-08-01T14:15:12.328Z,26.27
2022-08-01T14:17:40.065Z,26.28
2022-08-01T14:20:14.107Z,26.28
2022-08-01T14:22:40.544Z,26.26
2022-08-01T14:25:06.897Z,26.26
2022-08-01T14:27:33.420Z,26.27
2022-08-01T14:30:02.654Z,26.28
2022-08-01T14:32:29.891Z,26.28
2022-08-01T14:34:56.314Z,26.30
2022-08-01T14:37:22.686Z,26.29
2022-08-01T14:39:55.064Z,26.30
2022-08-01T14:42:21.414Z,26.33
2022-08-01T14:44:49.752Z,26.36
2022-08-01T14:47:22.123Z,26.38
2022-08-01T14:49:48.912Z,26.42
2022-08-01T14:52:15.356Z,26.45
2022-08-01T14:54:41.681Z,26.48
2022-08-01T14:57:08.021Z,26.50
2022-08-01T14:59:34.340Z,26.50
2022-08-01T15:02:03.029Z,26.52
2022-08-01T15:04:29.443Z,26.55
2022-08-01T15:06:55.770Z,26.59
2022-08-01T15:09:22.270Z,26.62
2022-08-01T15:11:48.685Z,26.64
2022-08-01T15:14:15.160Z,26.65
2022-08-01T15:16:42.276Z,26.66
2022-08-01T15:19:09.023Z,26.66
2022-08-01T15:21:41.781Z,26.67
2022-08-01T15:24:08.555Z,26.68
2022-08-01T15:26:34.886Z,26.70
2022-08-01T15:29:01.405Z,26.70
2022-08-01T15:31:27.819Z,26.73
2022-08-01T15:33:54.181Z,26.75
2022-08-01T15:36:25.588Z,26.75
2022-08-01T15:38:52.298Z,26.77
2022-08-01T15:41:18.688Z,26.78
2022-08-01T15:43:47.545Z,26.79
2022-08-01T15:46:22.521Z,26.78
2022-08-01T15:48:48.840Z,26.78
2022-08-01T15:51:15.297Z,26.78
2022-08-01T15:53:41.632Z,26.78
2022-08-01T15:56:08.266Z,26.79
2022-08-01T15:58:34.567Z,26.80
2022-08-01T16:01:01.019Z,26.81
2022-08-01T16:03:27.367Z,26.82
2022-08-01T16:05:53.660Z,26.81
2022-08-01T16:08:20.135Z,26.82
2022-08-01T16:10:46.534Z,26.81
2022-08-01T16:13:12.910Z,26.80
2022-08-01T16:15:39.364Z,26.81
2022-08-01T16:18:05.780Z,26.80
2022-08-01T16:20:32.364Z,26.79
2022-08-01T16:22:58.726Z,26.78
2022-08-01T16:25:25.130Z,26.77
2022-08-01T16:27:51.433Z,26.76
2022-08-01T16:30:17.723Z,26.75
2022-08-01T16:32:51.148Z,26.75
2022-08-01T16:35:22.164Z,26.73
2022-08-01T16:37:50.841Z,26.72
2022-08-01T16:40:17.296Z,26.72
2022-08-01T16:42:43.655Z,26.72
2022-08-01T16:45:13.918Z,26.72
2022-08-01T16:47:40.449Z,26.71
2022-08-01T16:50:06.869Z,26.70
2022-08-01T16:52:33.144Z,26.70
2022-08-01T16:55:08.130Z,26.68
2022-08-01T16:57:34.468Z,26.69
2022-08-01T17:00:00.765Z,26.66
2022-08-01T17:02:27.157Z,26.65
2022-08-01T17:04:53.510Z,26.64
2022-08-01T17:07:19.940Z,26.63
2022-08-01T17:09:46.226Z,26.62
2022-08-01T17:12:12.545Z,26.60
2022-08-01T17:14:40.647Z,26.60
2022-08-01T17:17:07.823Z,26.59
2022-08-01T17:19:34.289Z,26.58
2022-08-01T17:22:00.649Z,26.57
2022-08-01T17:24:26.953Z,26.57
2022-08-01T17:26:53.293Z,26.56
2022-08-01T17:29:19.581Z,26.56
2022-08-01T17:31:46.011Z,26.56
2022-08-01T17:34:12.347Z,26.54
2022-08-01T17:36:38.669Z,26.54
2022-08-01T17:39:04.979Z,26.52
2022-08-01T17:41:31.313Z,26.51
2022-08-01T17:43:57.612Z,26.51
2022-08-01T17:46:24.025Z,26.50
2022-08-01T17:48:50.380Z,26.48
2022-08-01T17:51:22.156Z,26.47
2022-08-01T17:53:56.917Z,26.46
2022-08-01T17:56:24.223Z,26.45
2022-08-01T17:58:52.250Z,26.45
2022-08-01T18:01:19.030Z,26.42
2022-08-01T18:03:45.506Z,26.39
2022-08-01T18:06:11.881Z,26.39
2022-08-01T18:08:38.178Z,26.38
2022-08-01T18:11:04.885Z,26.36
2022-08-01T18:13:31.772Z,26.33
2022-08-01T18:15:58.455Z,26.31
2022-08-01T18:18:32.771Z,26.30
2022-08-01T18:21:00.567Z,26.28
2022-08-01T18:23:26.919Z,26.26
2022-08-01T18:25:53.262Z,26.23
2022-08-01T18:28:30.042Z,26.21
2022-08-01T18:31:00.263Z,26.20
2022-08-01T18:33:26.692Z,26.18
2022-08-01T18:35:53.689Z,26.16
2022-08-01T18:38:20.518Z,26.15
2022-08-01T18:40:50.473Z,26.12
2022-08-01T18:43:16.996Z,26.09
2022-08-01T18:45:43.384Z,26.07
2022-08-01T18:48:09.746Z,26.05
2022-08-01T18:50:36.116Z,26.03
2022-08-01T18:53:02.406Z,26.01
2022-08-01T18:55:28.845Z,25.99
2022-08-01T18:57:55.185Z,25.96
2022-08-01T19:00:21.485Z,25.92
2022-08-01T19:02:47.793Z,25.90
2022-08-01T19:05:14.160Z,25.87
2022-08-01T19:08:06.400Z,25.84
2022-08-01T19:10:26.801Z,25.81
2022-08-01T19:12:53.242Z,25.78
2022-08-01T19:15:19.691Z,25.76
2022-08-01T19:17:46.003Z,25.72
2022-08-01T19:20:12.314Z,25.70
2022-08-01T19:22:38.617Z,25.66
2022-08-01T19:25:04.925Z,25.63
2022-08-01T19:27:31.204Z,25.59
2022-08-01T19:29:57.672Z,25.56
2022-08-01T19:32:24.016Z,25.53
2022-08-01T19:34:50.391Z,25.49
2022-08-01T19:37:16.776Z,25.46
2022-08-01T19:39:43.069Z,25.43
2022-08-01T19:42:09.651Z,25.40
2022-08-01T19:44:36.171Z,25.37
2022-08-01T19:47:04.903Z,25.34
2022-08-01T19:49:31.559Z,25.30
2022-08-01T19:51:58.124Z,25.26
2022-08-01T19:54:24.458Z,25.23
2022-08-01T19:56:50.868Z,25.19
2022-08-01T19:59:17.234Z,25.18
2022-08-01T20:01:43.578Z,25.15
2022-08-01T20:04:09.917Z,25.11
2022-08-01T20:06:36.209Z,25.09
2022-08-01T20:09:02.548Z,25.05
2022-08-01T20:11:28.903Z,25.03
2022-08-01T20:13:55.257Z,25.00
2022-08-01T20:16:21.655Z,24.96
2022-08-01T20:18:48.030Z,24.94
2022-08-01T20:21:17.377Z,24.91
2022-08-01T20:23:43.732Z,24.87
2022-08-01T20:26:10.059Z,24.84
2022-08-01T20:28:36.526Z,24.83
2022-08-01T20:31:05.655Z,24.80
2022-08-01T20:33:32.385Z,24.78
2022-08-01T20:36:00.946Z,24.74
2022-08-01T20:38:28.685Z,24.73
2022-08-01T20:40:55.053Z,24.69
2022-08-01T20:43:24.173Z,24.66
2022-08-01T20:45:50.569Z,24.63
2022-08-01T20:48:16.901Z,24.60
2022-08-01T20:50:52.946Z,24.58
2022-08-01T20:53:20.762Z,24.55
2022-08-01T20:55:47.086Z,24.52
2022-08-01T20:58:13.380Z,24.49
2022-08-01T21:00:39.924Z,24.46
2022-08-01T21:03:06.329Z,24.43
2022-08-01T21:05:32.720Z,24.40
2022-08-01T21:08:01.192Z,24.37
2022-08-01T21:10:29.353Z,24.33
2022-08-01T21:12:55.648Z,24.31
2022-08-01T21:15:22.063Z,24.26
2022-08-01T21:17:52.029Z,24.25
2022-08-01T21:20:18.336Z,24.21
2022-08-01T21:22:44.677Z,24.18
2022-08-01T21:25:11.044Z,24.15
2022-08-01T21:27:37.602Z,24.12
2022-08-01T21:30:04.242Z,24.09
2022-08-01T21:32:30.819Z,24.06
2022-08-01T21:34:57.151Z,24.04
2022-08-01T21:37:23.645Z,23.99
2022-08-01T21:39:49.949Z,23.97
2022-08-01T21:42:18.886Z,23.95
2022-08-01T21:44:45.600Z,23.91
2022-08-01T21:47:12.182Z,23.87
2022-08-01T21:49:38.882Z,23.83
2022-08-01T21:52:08.782Z,23.82
2022-08-01T21:54:35.388Z,23.78
2022-08-01T21:57:01.901Z,23.76
2022-08-01T21:59:28.212Z,23.73
2022-08-01T22:01:54.717Z,23.69
2022-08-01T22:04:21.083Z,23.67
2022-08-01T22:06:47.404Z,23.64
2022-08-01T22:09:13.781Z,23.62
2022-08-01T22:12:00.848Z,23.60
2022-08-01T22:14:26.557Z,23.57
2022-08-01T22:16:52.889Z,23.54
2022-08-01T22:19:43.857Z,23.51
2022-08-01T22:22:44.896Z,23.48
2022-08-01T22:25:03.671Z,23.45
2022-08-01T22:28:06.172Z,23.42
2022-08-01T22:30:16.629Z,23.39
2022-08-01T22:33:07.182Z,23.37
2022-08-01T22:35:32.618Z,23.34
2022-08-01T22:37:58.965Z,23.31
2022-08-01T22:40:27.857Z,23.28
2022-08-01T22:42:57.022Z,23.27
2022-08-01T22:45:25.951Z,23.25
2022-08-01T22:47:52.347Z,23.23
2022-08-01T22:50:19.685Z,23.21
2022-08-01T22:53:02.991Z,23.20
2022-08-01T22:55:58.237Z,23.18
2022-08-01T22:58:18.885Z,23.15
2022-08-01T23:00:45.310Z,23.12
2022-08-01T23:03:11.644Z,23.11
2022-08-01T23:05:39.131Z,23.08
2022-08-01T23:08:06.697Z,23.07
2022-08-01T23:10:41.422Z,23.03
2022-08-01T23:13:07.897Z,23.01
2022-08-01T23:15:35.618Z,23.00
2022-08-01T23:18:02.049Z,22.97
2022-08-01T23:20:28.564Z,22.96
2022-08-01T23:22:58.092Z,22.94
2022-08-01T23:25:24.539Z,22.92
2022-08-01T23:28:04.897Z,22.88
2022-08-01T23:30:32.531Z,22.88
2022-08-01T23:32:59.031Z,22.87
2022-08-01T23:35:25.435Z,22.84
2022-08-01T23:37:52.024Z,22.81
2022-08-01T23:40:18.406Z,22.79
2022-08-01T23:42:44.828Z,22.76
2022-08-01T23:45:11.212Z,22.75
2022-08-01T23:47:37.650Z,22.73
2022-08-01T23:50:04.088Z,22.71
2022-08-01T23:52:32.542Z,22.69
2022-08-01T23:55:13.170Z,22.68
2022-08-01T23:57:41.659Z,22.67
